createdAt,value
2019-01-31T00:01:51.312Z,102.61
2019-01-31T00:05:42.950Z,102.55
2019-01-31T00:08:58.846Z,103.07
2019-01-31T00:12:46.242Z,103.37
2019-01-31T00:16:33.786Z,103.42
2019-01-31T00:20:39.701Z,103.82
2019-01-31T00:23:52.166Z,103.45
2019-01-31T00:27:35.748Z,102.65
2019-01-31T00:31:20.886Z,103.28
2019-01-31T00:35:35.981Z,103.90
2019-01-31T00:39:00.547Z,104.41
2019-01-31T00:42:40.726Z,104.65
2019-01-31T00:46:14.598Z,104.48
2019-01-31T00:49:52.192Z,104.93
2019-01-31T00:53:06.009Z,104.58
2019-01-31T00:56:37.226Z,104.26
2019-01-31T01:00:02.260Z,104.06
2019-01-31T01:03:43.256Z,103.93
2019-01-31T01:07:18.121Z,104.58
2019-01-31T01:10:30.216Z,104.78
2019-01-31T01:14:02.868Z,104.66
2019-01-31T01:17:19.309Z,104.84
2019-01-31T01:20:51.091Z,104.25
2019-01-31T01:24:31.501Z,103.70
2019-01-31T01:27:57.198Z,104.03
2019-01-31T01:31:14.526Z,104.40
2019-01-31T01:34:47.977Z,104.64
2019-01-31T01:38:30.317Z,104.57
2019-01-31T01:42:07.665Z,104.74
2019-01-31T01:45:45.427Z,104.78
2019-01-31T01:49:25.046Z,104.02
2019-01-31T01:52:59.281Z,102.97
2019-01-31T01:56:33.516Z,102.08
2019-01-31T02:00:20.094Z,102.04
2019-01-31T02:04:12.898Z,102.37
2019-01-31T02:08:03.351Z,101.65
2019-01-31T02:11:47.922Z,101.85
2019-01-31T02:15:08.111Z,103.07
2019-01-31T02:18:25.687Z,103.41
2019-01-31T02:21:55.697Z,103.75
2019-01-31T02:25:07.640Z,104.44
2019-01-31T02:28:41.718Z,104.69
2019-01-31T02:32:09.668Z,104.80
2019-01-31T02:35:38.612Z,104.84
2019-01-31T02:39:20.063Z,104.52
2019-01-31T02:42:35.031Z,104.76
2019-01-31T02:46:21.576Z,104.89
2019-01-31T02:50:18.454Z,104.41
2019-01-31T02:53:31.713Z,104.34
2019-01-31T02:57:25.295Z,104.55
2019-01-31T03:01:06.167Z,104.77
2019-01-31T03:04:47.360Z,104.33
2019-01-31T03:08:18.341Z,104.16
2019-01-31T03:12:02.130Z,104.58
2019-01-31T03:15:20.262Z,104.77
2019-01-31T03:18:51.361Z,104.99
2019-01-31T03:22:19.956Z,104.60
2019-01-31T03:25:46.615Z,104.68
2019-01-31T03:29:46.229Z,104.52
2019-01-31T03:33:06.308Z,104.19
2019-01-31T03:36:31.589Z,104.06
2019-01-31T03:40:33.714Z,103.67
2019-01-31T03:43:54.967Z,102.84
2019-01-31T03:47:48.397Z,102.88
2019-01-31T03:51:25.897Z,102.89
2019-01-31T03:55:22.720Z,102.10
2019-01-31T03:58:38.092Z,101.96
2019-01-31T04:02:34.720Z,102.23
2019-01-31T04:05:57.593Z,102.26
2019-01-31T04:09:00.166Z,102.04
2019-01-31T04:12:02.836Z,101.86
2019-01-31T04:15:06.881Z,101.79
2019-01-31T04:18:09.550Z,101.35
2019-01-31T04:21:12.276Z,101.69
2019-01-31T04:24:14.827Z,101.19
2019-01-31T04:27:17.663Z,101.25
2019-01-31T04:30:20.826Z,101.53
2019-01-31T04:33:23.532Z,101.08
2019-01-31T04:36:26.130Z,101.26
2019-01-31T04:39:28.890Z,101.34
2019-01-31T04:42:31.450Z,101.17
2019-01-31T04:45:34.030Z,101.30
2019-01-31T04:48:36.729Z,101.62
2019-01-31T04:51:40.629Z,101.90
2019-01-31T04:54:43.324Z,101.50
2019-01-31T04:57:45.979Z,101.14
2019-01-31T05:00:48.573Z,101.13
2019-01-31T05:03:51.149Z,101.43
2019-01-31T05:06:53.732Z,101.72
2019-01-31T05:09:56.295Z,101.39
2019-01-31T05:12:58.889Z,101.05
2019-01-31T05:16:03.786Z,101.31
2019-01-31T05:19:06.161Z,101.56
2019-01-31T05:22:08.751Z,100.36
2019-01-31T05:25:12.384Z,100.47
2019-01-31T05:28:14.966Z,100.73
2019-01-31T05:31:17.583Z,101.57
2019-01-31T05:34:20.267Z,101.78
2019-01-31T05:37:25.925Z,101.50
2019-01-31T05:40:28.587Z,102.03
2019-01-31T05:43:31.311Z,102.87
2019-01-31T05:46:35.012Z,103.45
2019-01-31T05:49:37.579Z,103.74
2019-01-31T05:52:40.306Z,104.49
2019-01-31T05:55:42.870Z,104.97
2019-01-31T05:58:45.543Z,104.91
2019-01-31T06:01:49.315Z,104.71
2019-01-31T06:04:53.941Z,104.00
2019-01-31T06:07:56.612Z,103.43
2019-01-31T06:11:07.119Z,103.60
2019-01-31T06:14:04.194Z,103.29
2019-01-31T06:17:06.829Z,103.04
2019-01-31T06:20:11.954Z,103.40
2019-01-31T06:23:15.564Z,103.95
2019-01-31T06:26:18.169Z,103.72
2019-01-31T06:29:20.836Z,103.31
2019-01-31T06:32:23.415Z,103.04
2019-01-31T06:35:25.984Z,101.99
2019-01-31T06:38:28.605Z,102.10
2019-01-31T06:41:31.170Z,101.88
2019-01-31T06:44:33.887Z,102.16
2019-01-31T06:47:36.584Z,101.93
2019-01-31T06:50:39.170Z,102.00
2019-01-31T06:53:41.759Z,101.59
2019-01-31T06:56:44.410Z,101.72
2019-01-31T06:59:47.027Z,101.15
2019-01-31T07:02:50.046Z,101.82
2019-01-31T07:05:52.621Z,102.43
2019-01-31T07:08:55.185Z,102.53
2019-01-31T07:11:57.889Z,102.66
2019-01-31T07:15:00.450Z,103.03
2019-01-31T07:18:03.029Z,103.13
2019-01-31T07:21:05.640Z,103.84
2019-01-31T07:24:08.301Z,103.65
2019-01-31T07:27:10.949Z,104.08
2019-01-31T07:30:14.573Z,105.00
2019-01-31T07:33:17.138Z,104.73
2019-01-31T07:36:19.750Z,104.67
2019-01-31T07:39:22.380Z,104.65
2019-01-31T07:42:25.083Z,104.39
2019-01-31T07:45:29.223Z,104.57
2019-01-31T07:48:32.062Z,104.46
2019-01-31T07:51:34.882Z,104.20
2019-01-31T07:54:38.430Z,103.94
2019-01-31T07:57:41.070Z,103.54
2019-01-31T08:00:43.690Z,101.34
2019-01-31T08:03:46.430Z,100.23
2019-01-31T08:06:49.258Z,100.27
2019-01-31T08:09:51.816Z,99.79
2019-01-31T08:12:54.625Z,99.46
2019-01-31T08:15:57.295Z,98.14
2019-01-31T08:18:59.996Z,97.34
2019-01-31T08:22:02.703Z,97.92
2019-01-31T08:25:05.770Z,97.37
2019-01-31T08:28:08.647Z,97.30
2019-01-31T08:31:11.159Z,97.55
2019-01-31T08:34:13.795Z,97.65
2019-01-31T08:37:16.471Z,97.40
2019-01-31T08:40:19.271Z,97.94
2019-01-31T08:43:22.726Z,97.07
2019-01-31T08:46:25.381Z,96.59
2019-01-31T08:49:28.033Z,96.27
2019-01-31T08:52:30.741Z,95.96
2019-01-31T08:55:33.466Z,95.31
2019-01-31T08:58:36.185Z,95.18
2019-01-31T09:01:38.897Z,95.23
2019-01-31T09:04:41.620Z,93.15
2019-01-31T09:07:44.198Z,92.93
2019-01-31T09:10:46.904Z,92.97
2019-01-31T09:13:49.605Z,92.27
2019-01-31T09:16:52.169Z,92.48
2019-01-31T09:19:54.791Z,91.35
2019-01-31T09:23:25.153Z,90.31
2019-01-31T09:27:11.828Z,89.42
2019-01-31T09:30:36.355Z,89.49
2019-01-31T09:33:48.004Z,89.65
2019-01-31T09:37:17.923Z,89.29
2019-01-31T09:41:08.396Z,89.29
2019-01-31T09:44:56.960Z,85.81
2019-01-31T09:48:10.050Z,84.67
2019-01-31T09:51:42.599Z,84.93
2019-01-31T09:55:03.826Z,85.37
2019-01-31T09:58:36.813Z,85.04
2019-01-31T10:02:36.739Z,83.98
2019-01-31T10:06:31.994Z,85.48
2019-01-31T10:10:12.921Z,86.75
2019-01-31T10:14:09.910Z,87.10
2019-01-31T10:18:06.479Z,87.14
2019-01-31T10:21:49.870Z,84.99
2019-01-31T10:25:45.372Z,85.87
2019-01-31T10:29:34.849Z,84.37
2019-01-31T10:33:11.209Z,82.57
2019-01-31T10:36:48.164Z,82.70
2019-01-31T10:40:11.490Z,82.46
2019-01-31T10:43:24.740Z,80.35
2019-01-31T10:46:50.118Z,78.75
2019-01-31T10:50:25.610Z,80.74
2019-01-31T10:54:01.548Z,80.99
2019-01-31T10:57:29.209Z,78.60
2019-01-31T11:00:59.548Z,80.28
2019-01-31T11:04:56.152Z,80.77
2019-01-31T11:08:40.500Z,77.79
2019-01-31T11:12:25.638Z,78.42
2019-01-31T11:16:05.713Z,75.36
2019-01-31T11:19:30.095Z,76.32
2019-01-31T11:23:04.219Z,73.75
2019-01-31T11:26:23.802Z,76.70
2019-01-31T11:29:45.812Z,75.55
2019-01-31T11:33:26.518Z,76.56
2019-01-31T11:37:23.162Z,75.89
2019-01-31T11:41:35.059Z,76.63
2019-01-31T11:45:18.253Z,78.81
2019-01-31T11:48:31.870Z,80.12
2019-01-31T11:52:32.243Z,78.06
2019-01-31T11:56:29.289Z,76.11
2019-01-31T11:59:31.978Z,77.85
2019-01-31T12:02:34.761Z,77.66
2019-01-31T12:05:37.416Z,76.94
2019-01-31T12:08:40.078Z,76.39
2019-01-31T12:11:42.682Z,77.96
2019-01-31T12:14:45.279Z,79.13
2019-01-31T12:17:47.840Z,78.66
2019-01-31T12:20:50.381Z,80.44
2019-01-31T12:23:53.009Z,82.19
2019-01-31T12:26:55.607Z,82.86
2019-01-31T12:29:58.318Z,82.76
2019-01-31T12:33:02.057Z,82.47
2019-01-31T12:36:05.178Z,82.33
2019-01-31T12:39:09.772Z,81.69
2019-01-31T12:42:13.341Z,84.27
2019-01-31T12:45:17.433Z,83.40
2019-01-31T12:48:20.023Z,84.62
2019-01-31T12:51:22.643Z,84.00
2019-01-31T12:54:25.333Z,83.68
2019-01-31T12:57:28.016Z,83.61
2019-01-31T13:00:30.604Z,81.97
2019-01-31T13:03:33.277Z,78.16
2019-01-31T13:06:35.872Z,79.29
2019-01-31T13:09:38.578Z,76.36
2019-01-31T13:12:48.428Z,74.65
2019-01-31T13:15:45.976Z,77.21
2019-01-31T13:18:48.602Z,77.10
2019-01-31T13:21:51.364Z,77.78
2019-01-31T13:24:54.169Z,75.36
2019-01-31T13:27:57.069Z,75.83
2019-01-31T13:30:59.687Z,75.63
2019-01-31T13:34:02.472Z,73.82
2019-01-31T13:37:05.288Z,74.07
2019-01-31T13:40:13.380Z,73.17
2019-01-31T13:43:17.172Z,73.33
2019-01-31T13:46:20.001Z,72.47
2019-01-31T13:49:22.746Z,72.21
2019-01-31T13:52:25.387Z,73.18
2019-01-31T13:55:29.372Z,72.65
2019-01-31T13:58:32.062Z,72.74
2019-01-31T14:01:34.627Z,73.24
2019-01-31T14:04:37.280Z,73.52
2019-01-31T14:07:40.159Z,74.30
2019-01-31T14:10:42.868Z,74.95
2019-01-31T14:13:45.628Z,75.59
2019-01-31T14:16:48.268Z,76.06
2019-01-31T14:19:50.944Z,75.59
2019-01-31T14:22:53.723Z,75.18
2019-01-31T14:25:56.272Z,74.26
2019-01-31T14:28:58.847Z,74.84
2019-01-31T14:32:01.396Z,73.07
2019-01-31T14:35:04.882Z,73.94
2019-01-31T14:38:07.727Z,72.26
2019-01-31T14:41:10.392Z,71.34
2019-01-31T14:44:20.182Z,73.46
2019-01-31T14:47:17.778Z,72.96
2019-01-31T14:50:23.443Z,73.30
2019-01-31T14:53:26.163Z,72.62
2019-01-31T14:56:28.744Z,74.00
2019-01-31T14:59:31.336Z,75.07
2019-01-31T15:02:33.983Z,74.48
2019-01-31T15:05:37.003Z,75.19
2019-01-31T15:08:39.783Z,75.34
2019-01-31T15:11:42.343Z,74.43
2019-01-31T15:14:45.065Z,74.01
2019-01-31T15:17:47.749Z,74.89
2019-01-31T15:20:50.532Z,75.36
2019-01-31T15:23:53.088Z,76.37
2019-01-31T15:26:55.692Z,75.13
2019-01-31T15:29:59.304Z,75.41
2019-01-31T15:33:03.804Z,74.82
2019-01-31T15:36:06.707Z,76.23
2019-01-31T15:39:09.403Z,75.41
2019-01-31T15:42:12.193Z,76.20
2019-01-31T15:45:14.939Z,75.23
2019-01-31T15:48:17.949Z,77.10
2019-01-31T15:51:20.529Z,77.34
2019-01-31T15:54:23.238Z,76.78
2019-01-31T15:57:26.028Z,77.09
2019-01-31T16:00:39.627Z,77.65
2019-01-31T16:03:43.411Z,77.24
2019-01-31T16:06:46.211Z,78.51
2019-01-31T16:09:48.953Z,78.82
2019-01-31T16:12:53.624Z,79.74
2019-01-31T16:15:56.136Z,80.61
2019-01-31T16:18:58.864Z,80.75
2019-01-31T16:22:01.554Z,79.80
2019-01-31T16:25:04.983Z,80.63
2019-01-31T16:28:07.958Z,79.62
2019-01-31T16:31:10.627Z,80.26
2019-01-31T16:34:13.316Z,81.00
2019-01-31T16:37:16.102Z,81.52
2019-01-31T16:40:18.946Z,80.63
2019-01-31T16:43:21.698Z,81.22
2019-01-31T16:46:24.253Z,81.68
2019-01-31T16:49:26.957Z,81.94
2019-01-31T16:52:30.719Z,81.96
2019-01-31T16:55:33.387Z,82.47
2019-01-31T16:58:36.022Z,83.57
2019-01-31T17:01:38.631Z,84.11
2019-01-31T17:04:41.293Z,85.15
2019-01-31T17:07:43.971Z,85.37
2019-01-31T17:10:47.782Z,86.40
2019-01-31T17:13:50.509Z,86.92
2019-01-31T17:16:54.161Z,86.78
2019-01-31T17:19:57.994Z,86.36
2019-01-31T17:23:00.653Z,86.53
2019-01-31T17:26:03.813Z,86.01
2019-01-31T17:29:06.455Z,86.14
2019-01-31T17:32:10.177Z,85.11
2019-01-31T17:35:12.884Z,84.06
2019-01-31T17:38:15.508Z,83.30
2019-01-31T17:41:19.003Z,82.86
2019-01-31T17:44:21.566Z,81.94
2019-01-31T17:47:25.153Z,80.53
2019-01-31T17:50:27.908Z,80.83
2019-01-31T17:53:30.512Z,80.69
2019-01-31T17:56:33.117Z,78.71
2019-01-31T17:59:35.765Z,78.48
2019-01-31T18:02:45.315Z,77.01
2019-01-31T18:05:42.932Z,77.35
2019-01-31T18:08:45.676Z,78.38
2019-01-31T18:11:48.327Z,77.85
2019-01-31T18:14:50.927Z,78.43
2019-01-31T18:17:53.516Z,79.21
2019-01-31T18:20:56.186Z,79.38
2019-01-31T18:23:58.959Z,79.58
2019-01-31T18:27:01.561Z,78.95
2019-01-31T18:30:06.969Z,79.47
2019-01-31T18:33:09.683Z,79.96
2019-01-31T18:36:12.296Z,79.80
2019-01-31T18:39:14.916Z,79.57
2019-01-31T18:42:17.736Z,80.58
2019-01-31T18:45:25.620Z,80.79
2019-01-31T18:48:28.385Z,80.07
2019-01-31T18:51:31.242Z,80.32
2019-01-31T18:54:34.106Z,80.28
2019-01-31T18:57:37.616Z,80.54
2019-01-31T19:00:43.118Z,80.74
2019-01-31T19:03:45.847Z,80.80
2019-01-31T19:06:48.422Z,80.67
2019-01-31T19:09:52.643Z,79.73
2019-01-31T19:12:55.528Z,81.27
2019-01-31T19:16:05.190Z,80.78
2019-01-31T19:19:03.084Z,80.66
2019-01-31T19:22:05.827Z,81.33
2019-01-31T19:25:08.961Z,81.54
2019-01-31T19:28:13.254Z,82.02
2019-01-31T19:31:16.083Z,82.71
2019-01-31T19:34:18.818Z,82.24
2019-01-31T19:37:21.499Z,81.81
2019-01-31T19:40:27.202Z,81.73
2019-01-31T19:43:32.846Z,81.86
2019-01-31T19:46:35.547Z,81.93
2019-01-31T19:49:38.700Z,81.78
2019-01-31T19:52:41.361Z,82.50
2019-01-31T19:55:44.051Z,82.47
2019-01-31T19:58:48.586Z,82.89
2019-01-31T20:01:51.328Z,83.66
2019-01-31T20:04:54.117Z,82.92
2019-01-31T20:07:57.158Z,83.48
2019-01-31T20:11:00.052Z,83.35
2019-01-31T20:14:02.899Z,83.29
2019-01-31T20:17:08.481Z,83.02
2019-01-31T20:20:19.526Z,83.37
2019-01-31T20:23:24.753Z,83.03
2019-01-31T20:26:30.573Z,83.79
2019-01-31T20:29:33.316Z,83.65
2019-01-31T20:32:36.232Z,84.95
2019-01-31T20:35:40.055Z,83.98
2019-01-31T20:38:44.938Z,83.94
2019-01-31T20:41:54.368Z,84.37
2019-01-31T20:44:52.138Z,83.90
2019-01-31T20:47:54.933Z,84.52
2019-01-31T20:50:57.802Z,83.76
2019-01-31T20:54:00.664Z,84.27
2019-01-31T20:57:03.442Z,85.48
2019-01-31T21:00:13.823Z,86.57
2019-01-31T21:03:19.852Z,86.45
2019-01-31T21:06:22.612Z,87.30
2019-01-31T21:09:28.690Z,87.98
2019-01-31T21:12:31.712Z,87.02
2019-01-31T21:15:34.581Z,87.31
2019-01-31T21:18:37.215Z,86.88
2019-01-31T21:21:40.010Z,86.78
2019-01-31T21:24:44.541Z,87.07
2019-01-31T21:27:48.265Z,87.00
2019-01-31T21:30:50.847Z,88.04
2019-01-31T21:33:53.581Z,88.07
2019-01-31T21:36:56.237Z,88.04
2019-01-31T21:39:58.982Z,88.18
2019-01-31T21:43:01.692Z,88.22
2019-01-31T21:46:04.538Z,88.30
2019-01-31T21:49:07.214Z,88.81
2019-01-31T21:52:10.059Z,88.42
2019-01-31T21:55:13.851Z,89.23
2019-01-31T21:58:18.378Z,88.97
2019-01-31T22:01:21.105Z,89.51
2019-01-31T22:04:23.911Z,89.64
2019-01-31T22:07:26.577Z,90.57
2019-01-31T22:10:29.404Z,91.45
2019-01-31T22:13:32.083Z,91.93
2019-01-31T22:16:34.752Z,91.87
2019-01-31T22:19:37.547Z,92.35
2019-01-31T22:22:40.166Z,92.19
2019-01-31T22:25:42.905Z,93.09
2019-01-31T22:28:45.661Z,93.16
2019-01-31T22:31:48.418Z,92.82
2019-01-31T22:34:51.136Z,93.29
2019-01-31T22:37:54.005Z,93.75
2019-01-31T22:40:56.720Z,93.43
2019-01-31T22:43:59.337Z,94.24
2019-01-31T22:47:02.065Z,94.44
2019-01-31T22:50:06.040Z,94.49
2019-01-31T22:53:08.840Z,94.48
2019-01-31T22:56:11.446Z,95.77
2019-01-31T22:59:14.312Z,96.60
2019-01-31T23:02:17.040Z,96.81
2019-01-31T23:05:19.623Z,96.36
2019-01-31T23:08:23.475Z,96.09
2019-01-31T23:11:26.719Z,96.34
2019-01-31T23:14:30.444Z,95.19
2019-01-31T23:17:37.318Z,95.10
2019-01-31T23:20:37.609Z,95.31
2019-01-31T23:23:40.322Z,95.74
2019-01-31T23:26:42.920Z,96.92
2019-01-31T23:29:45.615Z,96.58
2019-01-31T23:32:48.264Z,96.44
2019-01-31T23:35:50.939Z,96.09
2019-01-31T23:38:53.654Z,95.56
2019-01-31T23:41:56.381Z,95.50
2019-01-31T23:44:59.086Z,95.38
2019-01-31T23:48:01.701Z,95.49
2019-01-31T23:51:04.484Z,95.22
2019-01-31T23:54:07.269Z,94.90
2019-01-31T23:57:09.905Z,94.91
